Time;durP1;ratioP1;P1;durP2;ratioP2;P2;SDS_P1;SDS_P2;PMS_P1;PMS_P2;Temp;Humidity;BMP_temperature;BMP_pressure;BME280_temperature;BME280_humidity;BME280_pressure;Samples;Min_cycle;Max_cycle;Signal;HPM_P1;HPM_P2
2022/11/20 00:00:54;;;;;;;25.17;12.17;;;;;;;1.98;84.72;100118.34;5031413;28;20704;-63
2022/11/20 00:03:23;;;;;;;26.30;13.17;;;;;;;1.96;85.41;100113.88;5029148;28;20284;-63
2022/11/20 00:05:50;;;;;;;28.00;13.80;;;;;;;1.95;85.48;100118.22;5029604;28;20251;-66
2022/11/20 00:08:16;;;;;;;24.90;14.13;;;;;;;1.93;85.71;100112.03;5027661;28;20306;-64
2022/11/20 00:10:42;;;;;;;24.87;13.30;;;;;;;2.00;85.04;100106.28;5026261;28;20242;-63
2022/11/20 00:13:08;;;;;;;26.50;12.67;;;;;;;1.96;84.75;100099.13;5027875;28;20240;-63
2022/11/20 00:15:35;;;;;;;29.10;13.70;;;;;;;2.09;84.60;100097.94;5027239;28;20284;-63
2022/11/20 00:18:01;;;;;;;23.07;12.80;;;;;;;1.98;85.05;100097.47;5027983;28;20669;-63
2022/11/20 00:20:27;;;;;;;25.77;14.23;;;;;;;1.91;85.51;100111.09;5030529;28;20204;-64
2022/11/20 00:22:54;;;;;;;25.27;13.73;;;;;;;2.03;85.65;100103.81;5020420;28;20739;-65
2022/11/20 00:25:20;;;;;;;31.20;14.43;;;;;;;1.99;85.68;100114.91;5012404;28;20198;-64
2022/11/20 00:27:46;;;;;;;29.10;14.67;;;;;;;2.00;85.71;100102.75;5026129;28;20224;-62
2022/11/20 00:30:13;;;;;;;28.23;13.63;;;;;;;2.11;85.66;100106.72;5028817;28;20232;-65
2022/11/20 00:32:40;;;;;;;25.83;12.70;;;;;;;1.99;85.87;100100.97;5026128;28;20603;-63
2022/11/20 00:35:07;;;;;;;23.70;12.37;;;;;;;1.93;86.24;100098.97;5026569;28;20203;-62
2022/11/20 00:37:33;;;;;;;27.77;14.30;;;;;;;1.92;86.20;100111.97;5028414;28;20221;-65
2022/11/20 00:39:59;;;;;;;24.73;13.17;;;;;;;1.88;85.88;100114.47;5027425;28;20279;-64
2022/11/20 00:42:26;;;;;;;26.27;13.27;;;;;;;1.80;86.51;100109.75;5019854;28;20226;-64
2022/11/20 00:44:52;;;;;;;29.67;13.67;;;;;;;1.80;86.87;100105.41;5024617;28;20200;-62
2022/11/20 00:47:19;;;;;;;24.57;12.97;;;;;;;1.71;87.25;100094.56;5029548;28;20703;-64
2022/11/20 00:49:45;;;;;;;36.40;16.77;;;;;;;1.70;87.27;100102.34;5024152;28;20198;-64
2022/11/20 00:52:11;;;;;;;27.67;14.87;;;;;;;1.66;87.45;100100.41;5024118;28;20557;-64
2022/11/20 00:54:38;;;;;;;30.33;14.00;;;;;;;1.62;87.80;100104.63;5027609;28;20310;-63
2022/11/20 00:57:04;;;;;;;29.20;14.80;;;;;;;1.58;88.33;100107.88;5025953;28;20214;-63
2022/11/20 00:59:30;;;;;;;28.20;14.20;;;;;;;1.64;88.44;100096.84;5029731;28;20254;-65
2022/11/20 01:01:57;;;;;;;28.37;13.90;;;;;;;1.71;88.03;100101.50;5024592;28;20263;-62
2022/11/20 01:04:23;;;;;;;25.43;13.33;;;;;;;1.73;88.29;100103.38;5028866;28;20197;-63
2022/11/20 01:06:49;;;;;;;28.40;13.67;;;;;;;1.67;88.29;100100.50;5027697;28;20673;-64
2022/11/20 01:09:16;;;;;;;27.40;13.53;;;;;;;1.64;88.48;100089.91;5025610;28;20312;-65
2022/11/20 01:11:44;;;;;;;28.83;14.43;;;;;;;1.70;88.26;100098.00;5028891;28;20205;-62
2022/11/20 01:14:16;;;;;;;28.03;13.53;;;;;;;1.62;88.71;100098.50;5029755;28;20218;-62
2022/11/20 01:16:48;;;;;;;29.17;14.30;;;;;;;1.67;89.10;100097.00;5027753;28;20292;-62
2022/11/20 01:19:20;;;;;;;28.07;14.57;;;;;;;1.64;89.08;100104.69;5025580;28;20219;-64
2022/11/20 01:21:50;;;;;;;26.90;13.40;;;;;;;1.71;88.72;100099.78;5027834;28;20199;-63
2022/11/20 01:24:18;;;;;;;27.57;12.93;;;;;;;1.66;88.98;100103.03;5028796;28;20193;-63
2022/11/20 01:26:48;;;;;;;31.80;14.20;;;;;;;1.61;89.13;100100.22;5027464;28;20197;-64
2022/11/20 01:29:18;;;;;;;27.07;14.07;;;;;;;1.56;89.27;100106.94;5028254;28;20708;-65
2022/11/20 01:31:45;;;;;;;26.90;12.97;;;;;;;1.48;89.16;100082.22;5026403;28;20245;-64
2022/11/20 01:34:18;;;;;;;34.97;15.60;;;;;;;1.50;89.39;100099.72;5029287;28;20246;-63
2022/11/20 01:36:45;;;;;;;29.57;15.17;;;;;;;1.51;89.68;100100.63;5018840;28;20207;-65
2022/11/20 01:39:17;;;;;;;27.33;13.57;;;;;;;1.49;89.58;100100.56;5028246;28;20322;-63
2022/11/20 01:44:56;;;;;;;29.43;14.27;;;;;;;1.62;89.47;100091.56;5024747;28;20194;-63
2022/11/20 01:47:39;;;;;;;27.27;13.70;;;;;;;1.69;89.02;100097.94;5027983;28;20629;-65
2022/11/20 01:50:14;;;;;;;33.90;14.43;;;;;;;1.56;89.05;100092.16;5027463;28;20191;-63
2022/11/20 01:52:46;;;;;;;33.07;14.43;;;;;;;1.49;89.38;100087.50;5024210;28;20285;-64
2022/11/20 01:55:21;;;;;;;29.03;14.43;;;;;;;1.47;89.58;100089.16;5023378;28;20195;-63
2022/11/20 01:57:48;;;;;;;27.83;13.23;;;;;;;1.46;90.04;100082.16;5024522;28;20286;-62
2022/11/20 02:00:18;;;;;;;27.73;13.47;;;;;;;1.52;89.68;100084.13;5026802;28;20250;-63
2022/11/20 02:02:53;;;;;;;24.77;13.10;;;;;;;1.45;89.82;100071.66;5029106;28;20432;-63
2022/11/20 02:05:27;;;;;;;27.07;13.93;;;;;;;1.52;89.65;100073.69;5007846;28;20679;-64
2022/11/20 02:07:56;;;;;;;29.23;14.07;;;;;;;1.51;89.56;100074.53;5018603;28;20290;-63
2022/11/20 02:10:22;;;;;;;28.70;14.33;;;;;;;1.43;89.90;100082.00;5026236;28;20287;-62
2022/11/20 02:15:34;;;;;;;29.20;14.53;;;;;;;1.54;90.14;100066.81;5028117;28;20286;-63
2022/11/20 02:18:01;;;;;;;30.70;14.43;;;;;;;1.36;90.40;100047.78;5020912;28;20698;-63
2022/11/20 02:20:27;;;;;;;30.20;14.43;;;;;;;1.49;90.43;100063.13;5028558;28;20285;-63
2022/11/20 02:22:59;;;;;;;30.73;15.03;;;;;;;1.51;90.73;100071.91;5022186;28;20232;-65
2022/11/20 02:25:27;;;;;;;28.63;14.47;;;;;;;1.53;91.01;100073.75;5025823;28;21003;-64
2022/11/20 02:27:54;;;;;;;32.43;13.83;;;;;;;1.58;91.43;100067.03;5023731;28;20299;-63
2022/11/20 02:30:20;;;;;;;30.33;14.67;;;;;;;1.60;91.29;100068.81;5029636;28;20250;-62
2022/11/20 02:32:46;;;;;;;31.83;15.20;;;;;;;1.56;91.32;100054.72;5027736;28;20227;-63
2022/11/20 02:35:19;;;;;;;27.23;14.67;;;;;;;1.68;91.51;100043.97;5032483;28;20202;-62
2022/11/20 02:37:49;;;;;;;30.10;14.90;;;;;;;1.66;91.18;100045.63;5028247;28;20261;-65
2022/11/20 02:40:16;;;;;;;30.93;14.97;;;;;;;1.62;90.94;100039.38;5035406;28;20197;-62
2022/11/20 02:42:42;;;;;;;28.50;15.07;;;;;;;1.66;90.84;100035.19;5031263;28;20217;-66
2022/11/20 02:45:09;;;;;;;31.50;15.17;;;;;;;1.74;89.50;100039.88;5029717;28;20673;-63
2022/11/20 02:47:35;;;;;;;32.27;15.80;;;;;;;1.62;89.51;100051.53;5020013;28;20226;-62
2022/11/20 02:50:03;;;;;;;32.73;15.63;;;;;;;1.58;90.01;100060.91;5031830;28;20286;-62
2022/11/20 02:52:30;;;;;;;34.30;16.73;;;;;;;1.57;90.35;100065.25;5028905;28;20283;-62
2022/11/20 02:54:56;;;;;;;33.63;16.87;;;;;;;1.60;90.33;100055.75;5028760;28;20632;-63
2022/11/20 02:57:23;;;;;;;36.03;15.67;;;;;;;1.57;90.73;100065.25;5025040;28;20235;-65
2022/11/20 02:59:49;;;;;;;34.57;17.47;;;;;;;1.58;91.22;100063.53;5029065;28;20229;-64
2022/11/20 03:02:15;;;;;;;30.60;15.07;;;;;;;1.60;91.24;100061.88;5027071;28;20623;-65
2022/11/20 03:04:42;;;;;;;35.40;16.80;;;;;;;1.67;91.01;100050.00;5027021;28;20197;-63
2022/11/20 03:07:09;;;;;;;33.17;17.10;;;;;;;1.68;90.94;100046.56;5029250;28;20666;-63
2022/11/20 03:09:36;;;;;;;30.47;15.33;;;;;;;1.67;90.96;100061.34;5028274;28;20252;-64
2022/11/20 03:12:02;;;;;;;35.73;17.23;;;;;;;1.71;90.83;100060.63;5028496;28;20196;-63
2022/11/20 03:14:29;;;;;;;33.60;16.57;;;;;;;1.83;90.33;100070.72;5025585;28;20639;-63
2022/11/20 03:16:55;;;;;;;31.63;15.53;;;;;;;1.94;89.52;100055.50;5033785;28;20295;-62
2022/11/20 03:19:22;;;;;;;33.33;16.57;;;;;;;1.93;89.01;100052.00;5032778;28;20280;-63
2022/11/20 03:21:49;;;;;;;31.60;15.87;;;;;;;1.94;88.47;100052.88;5031877;28;20209;-62
2022/11/20 03:24:15;;;;;;;33.47;15.63;;;;;;;1.93;88.49;100049.38;5026886;28;20277;-61
2022/11/20 03:26:42;;;;;;;33.00;16.20;;;;;;;1.94;88.75;100035.50;5030223;28;20238;-64
2022/11/20 03:29:08;;;;;;;32.27;15.40;;;;;;;1.93;88.91;100017.16;5020599;28;20266;-62
2022/11/20 03:31:37;;;;;;;29.73;15.37;;;;;;;1.93;88.99;100025.88;5030981;28;20251;-62
2022/11/20 03:34:04;;;;;;;32.63;15.47;;;;;;;1.88;89.37;100059.63;5028514;28;20277;-62
2022/11/20 03:36:31;;;;;;;33.27;15.23;;;;;;;1.86;89.99;100069.13;5026146;28;20254;-62
2022/11/20 03:38:57;;;;;;;35.73;16.43;;;;;;;1.92;90.04;100055.44;5033206;28;20301;-62
2022/11/20 03:41:27;;;;;;;33.93;16.10;;;;;;;1.85;90.26;100049.06;5030915;28;20342;-64
2022/11/20 03:43:55;;;;;;;30.57;15.77;;;;;;;1.89;90.39;100052.69;5030973;28;20276;-62
2022/11/20 03:46:23;;;;;;;35.37;17.20;;;;;;;1.96;89.83;100040.78;5027336;28;20198;-65
2022/11/20 03:48:49;;;;;;;30.90;14.43;;;;;;;1.93;89.66;100041.53;5028635;28;20221;-62
2022/11/20 03:51:23;;;;;;;30.63;15.33;;;;;;;2.02;88.90;100030.63;5027501;28;20203;-62
2022/11/20 03:53:51;;;;;;;34.17;15.23;;;;;;;1.95;89.33;100024.22;5030597;28;20267;-62
2022/11/20 03:56:20;;;;;;;33.77;15.93;;;;;;;1.97;89.23;100034.72;5025469;28;20283;-62
2022/11/20 03:58:46;;;;;;;27.83;13.93;;;;;;;1.93;89.56;100025.88;5028427;28;20224;-62
2022/11/20 04:01:21;;;;;;;32.70;16.60;;;;;;;1.93;89.60;100023.25;5027879;28;20294;-62
2022/11/20 04:03:48;;;;;;;32.73;15.57;;;;;;;1.99;89.82;100026.13;5034072;28;20731;-63
2022/11/20 04:06:16;;;;;;;30.23;14.73;;;;;;;1.97;89.64;100027.78;5027259;28;20292;-65
2022/11/20 04:08:43;;;;;;;32.37;15.83;;;;;;;1.96;89.83;100028.63;5029620;28;20321;-63
2022/11/20 04:11:16;;;;;;;32.63;15.63;;;;;;;2.09;88.96;100014.38;5027753;28;20195;-62
2022/11/20 04:13:46;;;;;;;30.90;15.47;;;;;;;2.13;88.98;100017.16;5025562;28;20306;-63
2022/11/20 04:16:13;;;;;;;33.73;14.47;;;;;;;2.10;89.28;100018.75;5009636;28;20266;-62
2022/11/20 04:18:40;;;;;;;33.33;15.93;;;;;;;2.16;88.85;100011.16;5029677;28;20223;-63
2022/11/20 04:21:07;;;;;;;32.07;16.60;;;;;;;2.08;89.00;100012.59;5025919;28;20285;-63
2022/11/20 04:23:33;;;;;;;30.53;15.33;;;;;;;2.00;89.40;100008.72;5027911;28;20240;-63
2022/11/20 04:26:07;;;;;;;32.60;15.30;;;;;;;2.01;89.88;100000.09;5026595;28;20207;-64
2022/11/20 04:28:34;;;;;;;33.93;16.23;;;;;;;1.98;89.71;100002.56;5029730;28;20301;-64
2022/11/20 04:31:06;;;;;;;31.43;15.13;;;;;;;1.95;89.94;100029.44;5024006;28;20723;-63
2022/11/20 04:33:33;;;;;;;32.23;15.47;;;;;;;1.95;89.77;100034.66;5029978;28;20252;-64
2022/11/20 04:36:12;;;;;;;33.50;16.10;;;;;;;1.95;89.76;100026.81;5024378;28;20776;-64
2022/11/20 04:38:39;;;;;;;34.43;16.70;;;;;;;1.95;90.16;100039.88;5011722;28;20400;-63
2022/11/20 04:41:12;;;;;;;30.27;15.20;;;;;;;1.94;90.21;100032.00;5028864;28;20624;-63
2022/11/20 04:43:38;;;;;;;29.90;15.03;;;;;;;1.91;90.39;100014.47;5027559;28;20285;-63
2022/11/20 04:46:04;;;;;;;32.83;16.60;;;;;;;1.97;90.47;100030.41;5027307;28;20329;-63
2022/11/20 04:48:31;;;;;;;32.83;16.20;;;;;;;1.95;90.46;100011.16;5030115;28;20249;-62
2022/11/20 04:50:57;;;;;;;30.57;15.07;;;;;;;2.00;89.74;100001.81;5029029;28;20259;-62
2022/11/20 04:53:24;;;;;;;33.03;16.50;;;;;;;2.00;90.13;100021.78;5011388;28;20202;-64
2022/11/20 04:55:50;;;;;;;33.63;15.87;;;;;;;2.02;90.32;100008.00;5026940;28;20292;-62
2022/11/20 04:58:16;;;;;;;35.67;15.40;;;;;;;2.05;90.15;100010.75;5027780;28;20803;-61
2022/11/20 05:00:43;;;;;;;30.60;15.50;;;;;;;2.06;90.16;100017.75;5023720;28;20731;-62
2022/11/20 05:03:09;;;;;;;34.17;15.77;;;;;;;2.04;90.17;100010.69;5026728;28;20248;-62
2022/11/20 05:05:36;;;;;;;31.33;15.97;;;;;;;2.06;90.20;100004.69;5027049;28;20280;-62
2022/11/20 05:08:02;;;;;;;32.33;15.83;;;;;;;1.96;90.26;99999.00;5028327;28;20301;-62
2022/11/20 05:10:28;;;;;;;33.67;15.40;;;;;;;2.09;90.12;100006.53;5026826;28;20635;-62
2022/11/20 05:12:57;;;;;;;33.00;15.40;;;;;;;2.11;90.01;100002.25;5027068;28;20197;-64
2022/11/20 05:15:23;;;;;;;35.83;16.93;;;;;;;2.09;90.15;100004.81;5026403;28;20575;-63
2022/11/20 05:17:51;;;;;;;31.57;15.13;;;;;;;2.03;90.17;100001.94;5022498;28;20217;-62
2022/11/20 05:20:18;;;;;;;33.03;16.30;;;;;;;2.22;89.02;100010.53;5021558;28;20266;-65
2022/11/20 05:22:45;;;;;;;31.47;15.83;;;;;;;2.22;88.85;100016.63;5029315;28;20231;-62
2022/11/20 05:25:11;;;;;;;37.27;16.13;;;;;;;2.29;87.60;100004.69;5023976;28;20196;-64
2022/11/20 05:27:38;;;;;;;34.80;16.13;;;;;;;2.25;87.36;100001.06;5022386;28;20253;-63
2022/11/20 05:30:05;;;;;;;30.90;14.63;;;;;;;2.18;88.20;100012.13;5034148;28;20196;-62
2022/11/20 05:32:32;;;;;;;37.37;15.67;;;;;;;2.10;88.40;100005.69;5025609;28;20207;-63
2022/11/20 05:34:58;;;;;;;31.97;15.33;;;;;;;2.12;88.82;100010.16;5035951;28;20267;-64
2022/11/20 05:37:24;;;;;;;34.03;15.37;;;;;;;2.08;88.90;100007.34;5030476;28;20223;-63
2022/11/20 05:39:51;;;;;;;32.40;14.80;;;;;;;2.08;89.45;100004.75;5025720;28;20197;-63
2022/11/20 05:42:32;;;;;;;32.87;15.33;;;;;;;2.11;89.53;100008.38;5035509;28;20278;-64
2022/11/20 05:45:03;;;;;;;33.40;16.03;;;;;;;2.10;89.74;100005.69;5026422;28;20282;-65
2022/11/20 05:47:34;;;;;;;30.80;14.20;;;;;;;2.10;89.79;100013.53;5027831;28;20248;-63
2022/11/20 05:50:01;;;;;;;33.27;15.73;;;;;;;2.18;89.46;100010.41;5027809;28;20296;-65
2022/11/20 05:52:30;;;;;;;34.73;16.80;;;;;;;2.17;88.98;100012.94;5024089;28;20250;-63
2022/11/20 05:54:57;;;;;;;37.00;16.47;;;;;;;2.28;88.27;100009.03;5033897;28;20219;-64
2022/11/20 05:57:23;;;;;;;39.10;17.30;;;;;;;2.24;88.43;100006.25;5046040;23;20221;-67
2022/11/20 05:59:50;;;;;;;37.33;16.57;;;;;;;2.14;88.46;100013.72;5004918;28;20569;-67
2022/11/20 06:02:16;;;;;;;34.97;15.70;;;;;;;2.11;89.01;100007.47;5008357;28;20199;-67
2022/11/20 06:04:42;;;;;;;33.30;15.97;;;;;;;2.17;89.05;99999.88;5011532;28;20200;-69
2022/11/20 06:07:09;;;;;;;32.57;15.43;;;;;;;2.11;89.30;100000.53;5010211;28;20198;-67
2022/11/20 06:09:35;;;;;;;32.90;15.87;;;;;;;2.26;88.53;99997.63;5004527;28;20213;-65
2022/11/20 06:12:02;;;;;;;36.37;15.63;;;;;;;2.28;88.44;99995.97;5007582;28;20214;-67
2022/11/20 06:14:28;;;;;;;32.10;15.87;;;;;;;2.30;87.99;99996.91;5008009;28;20221;-68
2022/11/20 06:16:55;;;;;;;36.57;16.13;;;;;;;2.26;88.53;100001.97;5010408;28;20222;-67
2022/11/20 06:19:21;;;;;;;32.60;15.43;;;;;;;2.19;88.32;99993.88;5006816;28;20239;-69
2022/11/20 06:21:51;;;;;;;33.33;14.77;;;;;;;2.16;88.35;99987.66;5009041;28;20191;-67
2022/11/20 06:24:17;;;;;;;36.30;16.57;;;;;;;2.11;88.74;99982.25;5010019;28;20288;-67
2022/11/20 06:26:44;;;;;;;34.53;15.67;;;;;;;2.10;89.00;99987.41;5009536;28;20228;-67
2022/11/20 06:29:11;;;;;;;38.43;15.97;;;;;;;2.20;88.95;99992.16;5005897;28;20312;-66
2022/11/20 06:31:37;;;;;;;35.83;15.83;;;;;;;2.13;89.18;99990.16;5009954;28;20419;-66
2022/11/20 06:34:06;;;;;;;31.23;14.93;;;;;;;2.01;89.53;99976.59;5005323;28;20197;-66
2022/11/20 06:36:33;;;;;;;33.07;16.10;;;;;;;2.04;90.01;99985.44;5007672;28;20223;-66
2022/11/20 06:38:59;;;;;;;38.30;15.90;;;;;;;2.11;90.16;99976.13;5004812;28;20253;-66
2022/11/20 06:41:27;;;;;;;36.87;16.00;;;;;;;2.15;89.62;99989.38;5009171;28;20685;-68
2022/11/20 06:43:54;;;;;;;38.33;16.30;;;;;;;2.01;89.87;99990.56;5009349;28;20346;-67
2022/11/20 06:46:21;;;;;;;38.43;16.43;;;;;;;2.05;89.71;99995.06;5004408;28;20246;-67
2022/11/20 06:48:49;;;;;;;41.47;17.87;;;;;;;1.99;90.12;99999.13;5007429;28;20272;-66
2022/11/20 06:51:15;;;;;;;34.03;15.53;;;;;;;1.99;90.89;100004.34;4999114;28;20282;-66
2022/11/20 06:53:42;;;;;;;36.60;16.20;;;;;;;2.16;90.65;100003.31;5004683;28;20201;-66
2022/11/20 06:56:08;;;;;;;44.77;18.50;;;;;;;2.14;90.62;99995.44;5010273;28;20327;-69
2022/11/20 06:58:36;;;;;;;45.87;20.17;;;;;;;2.08;90.64;100002.13;5004788;28;20325;-67
2022/11/20 07:01:09;;;;;;;43.53;19.10;;;;;;;2.08;90.90;99999.53;5005843;28;20305;-67
2022/11/20 07:03:36;;;;;;;39.83;17.73;;;;;;;2.13;90.82;100001.50;5010253;28;20203;-68
2022/11/20 07:06:03;;;;;;;42.80;17.83;;;;;;;2.25;91.00;100008.91;5002541;28;20218;-67
2022/11/20 07:08:30;;;;;;;41.00;18.30;;;;;;;2.25;90.90;100013.25;5005228;28;20313;-68
2022/11/20 07:10:58;;;;;;;39.67;17.70;;;;;;;2.23;91.15;100009.69;5007999;28;20204;-67
2022/11/20 07:13:25;;;;;;;39.90;17.80;;;;;;;2.24;91.26;100003.63;5009185;28;20254;-66
2022/11/20 07:15:52;;;;;;;41.40;17.73;;;;;;;2.20;91.44;100013.97;5006219;28;20389;-67
2022/11/20 07:18:18;;;;;;;41.90;17.97;;;;;;;2.40;90.64;100013.84;5008474;28;20307;-67
2022/11/20 07:20:44;;;;;;;39.60;17.47;;;;;;;2.29;90.95;100016.03;5009560;28;20620;-67
2022/11/20 07:23:11;;;;;;;38.23;17.90;;;;;;;2.26;90.82;100021.16;5007289;28;20230;-67
2022/11/20 07:25:37;;;;;;;37.30;17.60;;;;;;;2.32;91.21;100021.38;5005901;28;20222;-66
2022/11/20 07:28:03;;;;;;;40.17;18.13;;;;;;;2.34;91.15;100021.44;5007015;28;20296;-67
2022/11/20 07:30:30;;;;;;;37.67;18.10;;;;;;;2.33;91.21;100020.56;5011013;28;20206;-67
2022/11/20 07:32:57;;;;;;;42.27;18.73;;;;;;;2.40;91.49;100024.31;5009689;28;20295;-67
2022/11/20 07:35:24;;;;;;;42.63;18.47;;;;;;;2.41;91.73;100013.94;5006335;28;20286;-67
2022/11/20 07:37:50;;;;;;;39.57;18.60;;;;;;;2.50;91.23;100013.41;5006478;28;20227;-64
2022/11/20 07:40:18;;;;;;;35.77;16.80;;;;;;;2.54;91.54;100019.66;5009553;28;20273;-67
2022/11/20 07:42:52;;;;;;;38.00;18.67;;;;;;;2.58;91.54;100009.38;4991661;28;20200;-67
2022/11/20 07:45:20;;;;;;;40.37;18.17;;;;;;;2.64;91.09;100020.06;5005843;28;20233;-68
2022/11/20 07:47:46;;;;;;;40.00;18.10;;;;;;;2.76;90.25;100012.66;5009445;28;20700;-67
2022/11/20 07:50:13;;;;;;;34.60;17.60;;;;;;;2.87;90.20;100018.34;5010110;28;20224;-67
2022/11/20 07:52:40;;;;;;;37.83;16.90;;;;;;;2.90;90.20;100026.28;5008059;28;20535;-67
2022/11/20 07:55:07;;;;;;;37.33;17.60;;;;;;;3.17;88.37;100025.53;5008182;28;20308;-68
2022/11/20 07:57:34;;;;;;;36.53;18.70;;;;;;;3.27;87.40;100035.50;5009184;28;20327;-67
2022/11/20 08:00:00;;;;;;;35.77;17.67;;;;;;;3.23;87.89;100036.25;5008827;28;20195;-67
2022/11/20 08:02:27;;;;;;;34.17;17.20;;;;;;;3.11;88.08;100008.78;5008453;28;20196;-66
2022/11/20 08:04:53;;;;;;;34.33;16.07;;;;;;;3.24;88.40;100027.56;4990313;28;20648;-67
2022/11/20 08:07:19;;;;;;;34.03;16.87;;;;;;;3.33;88.93;100031.38;5006373;28;20756;-67
2022/11/20 08:09:46;;;;;;;39.63;17.10;;;;;;;3.52;88.03;100019.84;5007353;28;20231;-67
2022/11/20 08:15:05;;;;;;;38.90;18.73;;;;;;;3.72;87.42;100031.03;5000443;28;20218;-67
2022/11/20 08:17:38;;;;;;;33.70;16.57;;;;;;;3.86;86.90;100045.47;5007717;28;20263;-67
2022/11/20 08:20:05;;;;;;;33.67;18.27;;;;;;;3.96;86.60;100036.19;5006047;28;20291;-67
2022/11/20 08:22:31;;;;;;;38.13;18.20;;;;;;;3.96;86.86;100026.59;5009373;28;20255;-68
2022/11/20 08:24:58;;;;;;;35.63;18.07;;;;;;;4.10;86.55;100048.06;5008657;28;20220;-68
2022/11/20 08:27:24;;;;;;;34.63;18.60;;;;;;;4.33;86.15;100040.94;5003433;28;20295;-67
2022/11/20 08:29:50;;;;;;;36.30;18.27;;;;;;;4.55;86.08;100048.66;5007393;28;20200;-67
2022/11/20 08:32:17;;;;;;;37.57;17.70;;;;;;;4.52;85.03;100055.53;5010499;28;20192;-67
2022/11/20 08:34:43;;;;;;;39.83;18.83;;;;;;;4.48;85.40;100049.31;5007155;28;20224;-67
2022/11/20 08:37:09;;;;;;;35.33;18.40;;;;;;;4.55;85.15;100053.91;5004387;28;20665;-67
2022/11/20 08:39:36;;;;;;;33.73;16.73;;;;;;;4.34;83.42;100048.84;5006229;28;20244;-67
2022/11/20 08:42:06;;;;;;;30.13;16.13;;;;;;;4.29;83.91;100050.44;5006811;28;20248;-68
2022/11/20 08:44:32;;;;;;;32.20;17.00;;;;;;;4.30;84.70;100048.69;5006969;28;20196;-67
2022/11/20 08:47:00;;;;;;;33.27;17.27;;;;;;;4.31;85.29;100043.50;5006228;28;20268;-67
2022/11/20 08:49:26;;;;;;;31.70;16.13;;;;;;;4.52;84.51;100058.16;5008889;28;20328;-67
2022/11/20 08:51:54;;;;;;;34.60;17.73;;;;;;;4.54;84.98;100051.22;5009306;28;20198;-67
2022/11/20 08:54:22;;;;;;;32.67;17.40;;;;;;;4.68;83.55;100055.16;5004184;28;20244;-67
2022/11/20 08:56:48;;;;;;;33.10;16.83;;;;;;;4.75;82.23;100066.75;4987285;28;20224;-67
2022/11/20 08:59:15;;;;;;;33.30;15.73;;;;;;;4.67;82.64;100072.63;5006424;28;20767;-67
2022/11/20 09:02:01;;;;;;;31.73;15.93;;;;;;;4.52;81.42;100072.16;5004634;28;20192;-67
2022/11/20 09:04:28;;;;;;;31.77;15.70;;;;;;;4.53;82.48;100054.69;5005414;28;20736;-67
2022/11/20 09:06:54;;;;;;;32.10;16.37;;;;;;;4.67;81.42;100063.88;4998478;28;20209;-68
2022/11/20 09:09:21;;;;;;;35.80;16.43;;;;;;;4.98;81.04;100068.34;4997671;28;20229;-67
2022/11/20 09:11:49;;;;;;;32.53;17.13;;;;;;;4.70;81.29;100061.34;5006631;28;20550;-67
2022/11/20 09:14:16;;;;;;;31.77;16.07;;;;;;;4.85;81.74;100060.97;4999734;28;20705;-67
2022/11/20 09:16:44;;;;;;;34.33;17.33;;;;;;;4.92;82.09;100065.53;5008414;28;20258;-67
2022/11/20 09:19:10;;;;;;;34.63;17.20;;;;;;;5.14;80.01;100064.44;5003010;28;20224;-67
2022/11/20 09:21:57;;;;;;;32.30;16.47;;;;;;;5.00;81.38;100061.41;5001784;28;20287;-67
2022/11/20 09:24:26;;;;;;;29.47;16.43;;;;;;;5.06;81.00;100053.72;5007108;28;20198;-70
2022/11/20 09:26:52;;;;;;;31.10;16.77;;;;;;;4.95;81.42;100055.16;5002334;28;20283;-67
2022/11/20 09:29:18;;;;;;;34.03;16.33;;;;;;;4.94;82.40;100059.50;5007131;28;20217;-70
2022/11/20 09:31:45;;;;;;;32.83;16.40;;;;;;;4.83;82.02;100053.03;5001732;28;20565;-68
2022/11/20 09:34:12;;;;;;;32.33;16.43;;;;;;;4.81;82.71;100061.72;5004219;28;20203;-68
2022/11/20 09:36:38;;;;;;;33.10;16.57;;;;;;;4.77;83.30;100060.69;5005297;28;20257;-67
2022/11/20 09:39:04;;;;;;;31.03;16.00;;;;;;;4.72;83.03;100059.66;4908329;28;20225;-68
2022/11/20 09:42:09;;;;;;;28.03;15.47;;;;;;;4.73;83.33;100053.56;4997487;28;20246;-68
2022/11/20 09:44:52;;;;;;;32.80;17.13;;;;;;;4.66;83.34;100059.47;4991225;28;20265;-70
2022/11/20 09:47:46;;;;;;;31.17;16.67;;;;;;;4.73;83.14;100061.44;5002723;28;20228;-65
2022/11/20 09:50:36;;;;;;;32.63;16.97;;;;;;;4.71;83.35;100061.41;5003283;28;20288;-65
2022/11/20 09:53:22;;;;;;;31.17;14.97;;;;;;;4.78;83.41;100072.06;5005488;28;20754;-67
2022/11/20 09:55:48;;;;;;;29.27;15.80;;;;;;;4.79;83.44;100060.75;5001444;28;20662;-68
2022/11/20 09:58:40;;;;;;;30.53;16.53;;;;;;;4.76;83.28;100052.78;4999962;28;20664;-69
2022/11/20 10:01:14;;;;;;;32.00;16.43;;;;;;;4.76;83.14;100055.41;4988923;28;20286;-68
2022/11/20 10:03:50;;;;;;;32.40;16.27;;;;;;;4.72;83.79;100068.44;4984717;28;20287;-67
2022/11/20 10:06:21;;;;;;;31.07;16.07;;;;;;;4.75;84.35;100064.13;4987337;28;20196;-66
2022/11/20 10:08:59;;;;;;;29.00;15.23;;;;;;;4.78;84.47;100066.84;4987342;28;20218;-66
2022/11/20 10:12:00;;;;;;;29.73;16.80;;;;;;;4.82;84.55;100061.75;4988849;28;20300;-66
2022/11/20 10:14:43;;;;;;;29.17;16.63;;;;;;;4.85;84.08;100061.84;4987473;28;20236;-66
2022/11/20 10:17:33;;;;;;;29.70;15.67;;;;;;;4.71;84.45;100045.66;4988985;28;20797;-66
2022/11/20 10:20:21;;;;;;;29.27;15.37;;;;;;;4.80;84.51;100045.03;4988258;28;20326;-66
2022/11/20 10:23:24;;;;;;;31.20;16.53;;;;;;;4.95;83.23;100035.03;4989390;28;20202;-65
2022/11/20 10:26:02;;;;;;;30.57;16.07;;;;;;;5.02;82.48;100033.47;4990851;28;20248;-66
2022/11/20 10:28:47;;;;;;;28.13;15.77;;;;;;;5.11;81.65;100039.00;4988779;28;20282;-66
2022/11/20 10:31:34;;;;;;;27.60;14.90;;;;;;;4.92;81.90;100034.94;4988480;28;20199;-66
2022/11/20 10:34:07;;;;;;;28.23;15.87;;;;;;;4.83;83.05;100033.78;4987872;28;20322;-66
2022/11/20 10:36:49;;;;;;;28.30;15.23;;;;;;;4.74;83.72;100018.63;4987183;28;20247;-66
2022/11/20 10:39:24;;;;;;;33.80;16.73;;;;;;;4.77;83.91;100026.59;4988710;28;20213;-66
2022/11/20 10:41:53;;;;;;;31.20;16.23;;;;;;;4.78;84.39;100017.88;4987200;28;20636;-66
2022/11/20 10:47:15;;;;;;;28.37;15.00;;;;;;;5.03;82.86;100023.03;4990281;28;20224;-66
2022/11/20 10:49:46;;;;;;;28.67;16.07;;;;;;;5.09;82.00;100018.81;4992112;28;20224;-64
2022/11/20 10:52:28;;;;;;;27.33;15.00;;;;;;;5.04;82.53;100019.56;4987500;28;20205;-66
2022/11/20 10:55:03;;;;;;;27.97;15.90;;;;;;;5.14;82.42;100014.56;4985513;28;20284;-66
2022/11/20 10:57:51;;;;;;;32.77;15.73;;;;;;;5.30;81.92;100007.19;4981584;28;20525;-66
2022/11/20 11:00:18;;;;;;;28.43;15.00;;;;;;;5.51;79.52;100012.13;5009915;28;20254;-65
2022/11/20 11:02:48;;;;;;;26.57;14.63;;;;;;;5.46;81.15;100008.50;5010305;28;20206;-66
2022/11/20 11:05:25;;;;;;;27.83;16.17;;;;;;;5.50;81.56;100010.34;5010135;28;20576;-66
2022/11/20 11:07:55;;;;;;;29.93;16.80;;;;;;;5.65;81.63;100005.53;5005047;28;20404;-64
2022/11/20 11:10:27;;;;;;;32.20;17.00;;;;;;;5.90;79.34;100000.94;5010912;28;20237;-67
2022/11/20 11:12:53;;;;;;;28.70;16.13;;;;;;;5.86;78.23;99988.53;5007940;28;20624;-66
2022/11/20 11:15:27;;;;;;;31.87;17.00;;;;;;;5.90;78.56;99999.22;5007819;28;20981;-67
2022/11/20 11:17:54;;;;;;;30.43;15.50;;;;;;;5.89;79.66;99997.44;5007873;28;20269;-65
2022/11/20 11:20:25;;;;;;;29.57;15.73;;;;;;;6.03;78.63;99991.66;5010600;28;20200;-67
2022/11/20 11:22:57;;;;;;;34.80;16.87;;;;;;;5.87;79.28;99993.84;5009057;28;20290;-68
2022/11/20 11:25:35;;;;;;;26.30;14.33;;;;;;;5.95;79.33;99979.19;5004136;28;20210;-66
2022/11/20 11:28:19;;;;;;;33.33;15.27;;;;;;;6.23;77.96;99982.50;5008763;28;20221;-66
2022/11/20 11:30:47;;;;;;;27.93;15.83;;;;;;;6.53;76.32;99972.72;5009081;28;20207;-66
2022/11/20 11:33:28;;;;;;;25.37;14.90;;;;;;;6.69;75.45;99978.31;5003926;28;20261;-66
2022/11/20 11:35:58;;;;;;;25.30;14.77;;;;;;;6.74;75.95;99976.66;5009031;28;20227;-68
2022/11/20 11:38:36;;;;;;;27.50;14.70;;;;;;;6.77;77.49;99972.34;5007395;28;20626;-65
2022/11/20 11:41:05;;;;;;;26.53;15.07;;;;;;;6.88;77.34;99976.13;4986097;28;20297;-65